Time;durP1;ratioP1;P1;durP2;ratioP2;P2;SDS_P1;SDS_P2;PMS_P1;PMS_P2;Temp;Humidity;BMP_temperature;BMP_pressure;BME280_temperature;BME280_humidity;BME280_pressure;Samples;Min_cycle;Max_cycle;Signal;HPM_P1;HPM_P2
2022/05/22 00:01:17;;;;;;;10.88;4.78;;;;;;;-145.45;100.00;62759.84;5318936;27;20036;-83
2022/05/22 00:03:50;;;;;;;22.50;6.25;;;;;;;-145.45;100.00;62759.84;5317774;27;20050;-83
2022/05/22 00:06:24;;;;;;;9.63;5.30;;;;;;;-145.45;100.00;62759.84;5321299;27;20020;-83
2022/05/22 00:08:58;;;;;;;7.82;5.18;;;;;;;-145.45;100.00;62759.84;5298010;27;20543;-83
2022/05/22 00:11:39;;;;;;;12.20;5.50;;;;;;;-145.45;100.00;62759.84;5303838;28;20032;-83
2022/05/22 00:14:13;;;;;;;6.45;4.47;;;;;;;-145.45;100.00;62759.84;5300145;27;20032;-83
2022/05/22 00:16:56;;;;;;;12.25;5.57;;;;;;;-145.45;100.00;62759.84;5301725;27;20105;-83
2022/05/22 00:19:31;;;;;;;12.60;6.15;;;;;;;-145.45;100.00;62759.84;5301536;27;20044;-83
2022/05/22 00:22:12;;;;;;;9.45;4.88;;;;;;;-145.45;100.00;62759.84;5298349;28;20043;-83
2022/05/22 00:24:46;;;;;;;11.13;5.60;;;;;;;-145.45;100.00;62759.84;5318729;27;20028;-83
2022/05/22 00:27:26;;;;;;;13.55;6.75;;;;;;;-145.45;100.00;62759.84;5319608;27;20441;-84
2022/05/22 00:30:36;;;;;;;11.50;6.07;;;;;;;-145.45;100.00;62759.84;5300297;28;20035;-83
2022/05/22 00:33:13;;;;;;;11.57;6.97;;;;;;;-145.45;100.00;62759.84;5316775;27;20040;-83
2022/05/22 00:35:44;;;;;;;;;;;;;;;-145.45;100.00;62759.84;5319495;27;20040;-83
2022/05/22 00:38:19;;;;;;;17.98;8.65;;;;;;;-145.45;100.00;62759.84;5296708;27;19928;-83
2022/05/22 00:40:59;;;;;;;12.82;8.15;;;;;;;-145.45;100.00;62759.84;5299477;27;20032;-83
2022/05/22 00:43:36;;;;;;;15.35;8.63;;;;;;;-145.45;100.00;62759.84;5299359;27;20136;-83
2022/05/22 00:46:11;;;;;;;18.05;8.55;;;;;;;-145.45;100.00;62759.84;5316410;27;20074;-83
2022/05/22 00:48:58;;;;;;;17.35;9.20;;;;;;;-145.45;100.00;62759.84;5297334;27;20040;-84
2022/05/22 00:51:48;;;;;;;22.75;10.63;;;;;;;-145.45;100.00;62759.84;5299592;27;20066;-81
2022/05/22 00:54:37;;;;;;;19.70;10.57;;;;;;;-145.45;100.00;62759.84;5296930;27;20046;-83
2022/05/22 00:57:22;;;;;;;14.00;8.48;;;;;;;-145.45;100.00;62759.84;5314572;27;20031;-83
2022/05/22 01:00:14;;;;;;;20.92;9.48;;;;;;;-145.45;100.00;62759.84;5316082;27;20507;-83
2022/05/22 01:05:46;;;;;;;25.25;12.63;;;;;;;-145.45;100.00;62759.84;5319804;27;20032;-83
2022/05/22 01:08:24;;;;;;;23.08;11.93;;;;;;;-145.45;100.00;62759.84;5301266;27;20038;-83
2022/05/22 01:11:04;;;;;;;17.05;10.27;;;;;;;-145.45;100.00;62759.84;5331465;27;20134;-83
2022/05/22 01:13:45;;;;;;;22.63;10.38;;;;;;;-145.45;100.00;62759.84;5340596;27;20120;-83
2022/05/22 01:16:25;;;;;;;18.70;9.50;;;;;;;-145.45;100.00;62759.84;5336012;27;20046;-82
2022/05/22 01:18:57;;;;;;;28.33;10.52;;;;;;;-145.45;100.00;62759.84;5355150;27;20640;-83
2022/05/22 01:21:35;;;;;;;21.50;10.10;;;;;;;-145.45;100.00;62759.84;5336250;27;20090;-83
2022/05/22 01:24:08;;;;;;;18.33;8.63;;;;;;;-145.45;100.00;62759.84;5342927;27;20428;-82
2022/05/22 01:26:42;;;;;;;14.27;8.25;;;;;;;-145.45;100.00;62759.84;5322782;27;20102;-83
2022/05/22 01:29:16;;;;;;;19.58;8.90;;;;;;;-145.45;100.00;62759.84;5338033;27;20062;-82
2022/05/22 01:31:52;;;;;;;15.48;8.43;;;;;;;-145.45;100.00;62759.84;5338453;27;20028;-82
2022/05/22 01:34:26;;;;;;;19.08;8.20;;;;;;;-145.45;100.00;62759.84;5328902;27;20030;-83
2022/05/22 01:37:17;;;;;;;11.98;8.23;;;;;;;-145.45;100.00;62759.84;5337856;27;20035;-82
2022/05/22 01:39:59;;;;;;;17.50;8.68;;;;;;;-145.45;100.00;62759.84;5331551;27;20031;-83
2022/05/22 01:42:45;;;;;;;17.55;10.13;;;;;;;-145.45;100.00;62759.84;5340290;27;20062;-82
2022/05/22 01:45:31;;;;;;;28.27;9.32;;;;;;;-145.45;100.00;62759.84;5338457;27;20074;-83
2022/05/22 01:48:14;;;;;;;17.02;8.95;;;;;;;-145.45;100.00;62759.84;5340316;27;20069;-83
2022/05/22 01:50:49;;;;;;;16.10;9.63;;;;;;;-145.45;100.00;62759.84;5338758;27;20089;-82
2022/05/22 01:53:53;;;;;;;21.73;10.73;;;;;;;-145.45;100.00;62759.84;5335334;27;20382;-82
2022/05/22 01:56:48;;;;;;;17.90;9.88;;;;;;;-145.45;100.00;62759.84;5327832;27;20039;-83
2022/05/22 01:59:20;;;;;;;17.25;9.10;;;;;;;-145.45;100.00;62759.84;5337733;27;20096;-83
2022/05/22 02:02:00;;;;;;;20.67;9.40;;;;;;;-145.45;100.00;62759.84;5336624;27;20036;-83
2022/05/22 02:04:37;;;;;;;21.80;9.52;;;;;;;-145.45;100.00;62759.84;5338163;27;20032;-83
2022/05/22 02:10:07;;;;;;;12.15;8.05;;;;;;;-145.45;100.00;62759.84;5326658;27;20048;-83
2022/05/22 02:12:39;;;;;;;16.08;9.75;;;;;;;-145.45;100.00;62759.84;5314736;27;20069;-83
2022/05/22 02:15:13;;;;;;;21.52;10.40;;;;;;;-145.45;100.00;62759.84;5316839;27;20040;-83
2022/05/22 02:17:50;;;;;;;21.08;9.98;;;;;;;-145.45;100.00;62759.84;5299224;28;20036;-83
2022/05/22 02:20:27;;;;;;;17.67;11.45;;;;;;;-145.45;100.00;62759.84;5318056;27;20525;-83
2022/05/22 02:22:59;;;;;;;20.08;12.32;;;;;;;-145.45;100.00;62759.84;5316523;27;20058;-83
2022/05/22 02:25:38;;;;;;;20.70;11.95;;;;;;;-145.45;100.00;62759.84;5318222;27;20134;-83
2022/05/22 02:28:14;;;;;;;14.93;10.13;;;;;;;-145.45;100.00;62759.84;5317414;27;20482;-83
2022/05/22 02:31:11;;;;;;;19.65;13.60;;;;;;;-145.45;100.00;62759.84;5296142;27;20089;-83
2022/05/22 02:33:45;;;;;;;20.80;11.43;;;;;;;-145.45;100.00;62759.84;5311026;27;20507;-83
2022/05/22 02:36:22;;;;;;;23.27;12.90;;;;;;;-145.45;100.00;62759.84;5318683;27;20059;-83
2022/05/22 02:39:11;;;;;;;23.60;13.00;;;;;;;-145.45;100.00;62759.84;5299144;27;20110;-83
2022/05/22 02:41:42;;;;;;;19.15;11.25;;;;;;;-145.45;100.00;62759.84;5302162;27;20040;-82
2022/05/22 02:44:20;;;;;;;19.15;13.00;;;;;;;-145.45;100.00;62759.84;5314975;27;20104;-83
2022/05/22 02:46:52;;;;;;;22.02;13.40;;;;;;;-145.45;100.00;62759.84;5318688;27;20024;-83
2022/05/22 02:49:33;;;;;;;24.60;14.23;;;;;;;-145.45;100.00;62759.84;5300282;27;20043;-83
2022/05/22 02:52:07;;;;;;;20.88;13.40;;;;;;;-145.45;100.00;62759.84;5316253;27;20028;-83
2022/05/22 02:54:39;;;;;;;21.33;12.57;;;;;;;-145.45;100.00;62759.84;5291391;27;20025;-83
2022/05/22 02:57:11;;;;;;;18.75;13.23;;;;;;;-145.45;100.00;62759.84;5300105;27;20036;-83
2022/05/22 02:59:48;;;;;;;21.80;12.52;;;;;;;-145.45;100.00;62759.84;5298714;27;20397;-83
2022/05/22 03:02:19;;;;;;;16.38;12.18;;;;;;;-145.45;100.00;62759.84;5299921;27;20111;-83
2022/05/22 03:04:51;;;;;;;21.17;12.48;;;;;;;-145.45;100.00;62759.84;5318473;27;20111;-83
2022/05/22 03:07:22;;;;;;;17.13;10.93;;;;;;;-145.45;100.00;62759.84;5317438;27;20024;-82
2022/05/22 03:09:53;;;;;;;17.20;11.50;;;;;;;-145.45;100.00;62759.84;5313994;27;20097;-82
2022/05/22 03:12:25;;;;;;;20.08;12.88;;;;;;;-145.45;100.00;62759.84;5339353;27;20380;-83
2022/05/22 03:14:57;;;;;;;24.95;13.48;;;;;;;-145.45;100.00;62759.84;5333129;27;20407;-82
2022/05/22 03:17:29;;;;;;;16.08;11.05;;;;;;;-145.45;100.00;62759.84;5340430;27;20032;-83
2022/05/22 03:20:03;;;;;;;16.80;12.15;;;;;;;-145.45;100.00;62759.84;5347820;27;20119;-82
2022/05/22 03:22:38;;;;;;;20.75;11.90;;;;;;;-145.45;100.00;62759.84;5346401;27;20090;-83
2022/05/22 03:25:09;;;;;;;18.80;11.55;;;;;;;-145.45;100.00;62759.84;5345637;27;20027;-82
2022/05/22 03:27:41;;;;;;;16.58;12.20;;;;;;;-145.45;100.00;62759.84;5344072;27;20035;-84
2022/05/22 03:30:12;;;;;;;18.42;12.15;;;;;;;-145.45;100.00;62759.84;5344554;27;20027;-82
2022/05/22 03:32:46;;;;;;;19.42;12.48;;;;;;;-145.45;100.00;62759.84;5339065;27;20169;-83
2022/05/22 03:35:18;;;;;;;13.85;10.23;;;;;;;-145.45;100.00;62759.84;5337549;27;20042;-82
2022/05/22 03:37:51;;;;;;;17.17;12.13;;;;;;;-145.45;100.00;62759.84;5335068;27;20024;-83
2022/05/22 03:40:23;;;;;;;16.95;11.88;;;;;;;-145.45;100.00;62759.84;5333376;27;20028;-83
2022/05/22 03:42:54;;;;;;;14.85;11.60;;;;;;;-145.45;100.00;62759.84;5341176;27;20027;-83
2022/05/22 03:45:26;;;;;;;21.25;12.70;;;;;;;-145.45;100.00;62759.84;5340122;27;20049;-83
2022/05/22 03:47:57;;;;;;;21.48;13.98;;;;;;;-145.45;100.00;62759.84;5332955;27;20118;-82
2022/05/22 03:50:29;;;;;;;16.80;12.32;;;;;;;-145.45;100.00;62759.84;5334956;27;20106;-82
2022/05/22 03:53:01;;;;;;;19.00;12.00;;;;;;;-145.45;100.00;62759.84;5335782;27;20027;-82
2022/05/22 03:55:32;;;;;;;20.35;12.02;;;;;;;-145.45;100.00;62759.84;5334220;27;20074;-83
2022/05/22 03:58:03;;;;;;;15.38;11.68;;;;;;;-145.45;100.00;62759.84;5343749;27;20428;-83
2022/05/22 04:00:35;;;;;;;19.52;12.23;;;;;;;-145.45;100.00;62759.84;5338252;27;21276;-83
2022/05/22 04:03:06;;;;;;;17.40;12.25;;;;;;;-145.45;100.00;62759.84;5339162;27;20483;-83
2022/05/22 04:05:38;;;;;;;19.15;12.70;;;;;;;-145.45;100.00;62759.84;5333001;27;20043;-83
2022/05/22 04:08:09;;;;;;;18.70;11.18;;;;;;;-145.45;100.00;62759.84;5342889;27;20043;-83
2022/05/22 04:10:43;;;;;;;15.70;10.80;;;;;;;-145.45;100.00;62759.84;5340918;27;20128;-83
2022/05/22 04:13:15;;;;;;;16.58;11.82;;;;;;;-145.45;100.00;62759.84;5359849;27;20055;-82
2022/05/22 04:15:47;;;;;;;18.75;11.98;;;;;;;-145.45;100.00;62759.84;5338078;27;20145;-82
2022/05/22 04:18:18;;;;;;;13.05;11.65;;;;;;;-145.45;100.00;62759.84;5343862;27;20040;-82
2022/05/22 04:20:49;;;;;;;18.80;12.25;;;;;;;-145.45;100.00;62759.84;5341148;27;20024;-83
2022/05/22 04:26:12;;;;;;;18.77;12.88;;;;;;;-145.45;100.00;62759.84;5339366;27;20075;-83
2022/05/22 04:28:43;;;;;;;23.52;15.02;;;;;;;-145.45;100.00;62759.84;5328094;27;20020;-82
2022/05/22 04:31:16;;;;;;;23.20;15.35;;;;;;;-145.45;100.00;62759.84;5335160;27;20591;-82
2022/05/22 04:33:47;;;;;;;21.10;16.23;;;;;;;-145.45;100.00;62759.84;5330492;27;20099;-82
2022/05/22 04:36:18;;;;;;;18.90;16.20;;;;;;;-145.45;100.00;62759.84;5332690;27;20034;-83
2022/05/22 04:38:50;;;;;;;24.13;19.40;;;;;;;-145.45;100.00;62759.84;5330767;27;20449;-82
2022/05/22 04:41:24;;;;;;;25.90;19.02;;;;;;;-145.45;100.00;62759.84;5334695;27;20031;-83
2022/05/22 04:43:55;;;;;;;30.23;19.25;;;;;;;-145.45;100.00;62759.84;5327573;27;20434;-83
2022/05/22 04:46:27;;;;;;;29.08;19.10;;;;;;;-145.45;100.00;62759.84;5334528;27;20023;-83
2022/05/22 04:48:58;;;;;;;27.05;17.08;;;;;;;-145.45;100.00;62759.84;5332841;27;20024;-83
2022/05/22 04:51:29;;;;;;;28.13;17.73;;;;;;;-145.45;100.00;62759.84;5330864;27;20032;-83
2022/05/22 04:54:01;;;;;;;25.77;19.15;;;;;;;-145.45;100.00;62759.84;5332361;27;33558;-83
2022/05/22 04:56:32;;;;;;;22.95;17.55;;;;;;;-145.45;100.00;62759.84;5331372;27;20063;-83
2022/05/22 04:59:04;;;;;;;21.25;17.30;;;;;;;-145.45;100.00;62759.84;5336260;27;20176;-83
2022/05/22 05:01:36;;;;;;;24.75;16.50;;;;;;;-145.45;100.00;62759.84;5326904;27;20590;-83
2022/05/22 05:04:07;;;;;;;25.40;18.10;;;;;;;-145.45;100.00;62759.84;5329187;27;20021;-83
2022/05/22 05:06:38;;;;;;;26.20;16.65;;;;;;;-145.45;100.00;62759.84;5330148;27;20401;-83
2022/05/22 05:09:12;;;;;;;20.38;16.83;;;;;;;-145.45;100.00;62759.84;5332532;27;20546;-83
2022/05/22 05:11:44;;;;;;;23.88;16.88;;;;;;;-145.45;100.00;62759.84;5333425;27;20025;-83
2022/05/22 05:14:15;;;;;;;21.42;16.42;;;;;;;-145.45;100.00;62759.84;5334785;27;20088;-83
2022/05/22 05:16:50;;;;;;;24.33;15.27;;;;;;;-145.45;100.00;62759.84;5331416;27;20035;-83
2022/05/22 05:19:21;;;;;;;21.95;16.38;;;;;;;-145.45;100.00;62759.84;5335826;27;20050;-83
2022/05/22 05:21:56;;;;;;;26.00;16.30;;;;;;;-145.45;100.00;62759.84;5334880;27;20024;-83
2022/05/22 05:24:28;;;;;;;20.67;15.63;;;;;;;-145.45;100.00;62759.84;5337891;27;20023;-83
2022/05/22 05:27:02;;;;;;;27.23;16.10;;;;;;;-145.45;100.00;62759.84;5338878;27;20464;-84
2022/05/22 05:29:33;;;;;;;17.17;14.13;;;;;;;-145.45;100.00;62759.84;5317986;27;20039;-83
2022/05/22 05:32:05;;;;;;;17.70;13.90;;;;;;;-145.45;100.00;62759.84;5337998;27;20027;-83
2022/05/22 05:34:37;;;;;;;16.08;12.77;;;;;;;-145.45;100.00;62759.84;5316070;27;20040;-83
2022/05/22 05:37:08;;;;;;;16.23;11.82;;;;;;;-145.45;100.00;62759.84;5351079;27;20055;-83
2022/05/22 05:39:40;;;;;;;15.38;12.38;;;;;;;-145.45;100.00;62759.84;5330407;27;20039;-83
2022/05/22 05:42:12;;;;;;;18.55;12.32;;;;;;;-145.45;100.00;62759.84;5343310;27;20088;-83
2022/05/22 05:44:44;;;;;;;15.80;10.60;;;;;;;-145.45;100.00;62759.84;5340427;27;20032;-84
2022/05/22 05:47:18;;;;;;;17.17;10.85;;;;;;;-145.45;100.00;62759.84;5331501;27;20078;-81
2022/05/22 05:49:49;;;;;;;16.95;11.00;;;;;;;-145.45;100.00;62759.84;5332036;27;20047;-82
2022/05/22 05:52:21;;;;;;;20.95;10.82;;;;;;;-145.45;100.00;62759.84;5334214;27;20024;-82
2022/05/22 05:54:52;;;;;;;13.82;10.15;;;;;;;-145.45;100.00;62759.84;5337920;27;20020;-81
2022/05/22 05:57:24;;;;;;;17.33;10.15;;;;;;;-145.45;100.00;62759.84;5333055;27;20435;-81
2022/05/22 05:59:56;;;;;;;14.35;10.23;;;;;;;-145.45;100.00;62759.84;5334034;27;20024;-82
2022/05/22 06:02:27;;;;;;;14.18;9.48;;;;;;;-145.45;100.00;62759.84;5330605;27;20472;-82
2022/05/22 06:04:59;;;;;;;14.13;9.85;;;;;;;-145.45;100.00;62759.84;5339787;27;20051;-83
2022/05/22 06:07:30;;;;;;;15.27;9.77;;;;;;;-145.45;100.00;62759.84;5333070;27;20483;-83
2022/05/22 06:10:04;;;;;;;18.17;9.75;;;;;;;-145.45;100.00;62759.84;5328430;27;20047;-82
2022/05/22 06:12:35;;;;;;;14.32;9.23;;;;;;;-145.45;100.00;62759.84;5336409;27;20085;-82
2022/05/22 06:15:08;;;;;;;14.77;8.43;;;;;;;-145.45;100.00;62759.84;5338380;27;20044;-82
2022/05/22 06:17:46;;;;;;;14.95;9.38;;;;;;;-145.45;100.00;62759.84;5331646;27;20032;-83
2022/05/22 06:20:18;;;;;;;15.35;8.95;;;;;;;-145.45;100.00;62759.84;5338573;27;20032;-83
2022/05/22 06:22:49;;;;;;;13.00;8.50;;;;;;;-145.45;100.00;62759.84;5325595;27;20028;-83
2022/05/22 06:25:21;;;;;;;14.43;8.35;;;;;;;-145.45;100.00;62759.84;5344136;27;20499;-82
2022/05/22 06:27:52;;;;;;;15.60;9.40;;;;;;;-145.45;100.00;62759.84;5317378;27;20085;-83
2022/05/22 06:30:24;;;;;;;16.27;8.70;;;;;;;-145.45;100.00;62759.84;5333326;27;20115;-83
2022/05/22 06:32:57;;;;;;;15.02;9.23;;;;;;;-145.45;100.00;62759.84;5335367;27;20035;-83
2022/05/22 06:35:28;;;;;;;16.20;8.82;;;;;;;-145.45;100.00;62759.84;5331029;27;20024;-83
2022/05/22 06:38:01;;;;;;;12.65;8.23;;;;;;;-145.45;100.00;62759.84;5334358;27;20098;-83
2022/05/22 06:40:32;;;;;;;12.77;8.52;;;;;;;-145.45;100.00;62759.84;5338442;27;20016;-83
2022/05/22 06:43:04;;;;;;;14.52;9.25;;;;;;;-145.45;100.00;62759.84;5335785;27;20024;-83
2022/05/22 06:45:35;;;;;;;11.48;8.15;;;;;;;-145.45;100.00;62759.84;5328133;27;20050;-83
2022/05/22 06:48:07;;;;;;;12.75;8.27;;;;;;;-145.45;100.00;62759.84;5333617;27;20025;-83
2022/05/22 06:50:38;;;;;;;14.98;9.45;;;;;;;-145.45;100.00;62759.84;5336165;27;20035;-83
2022/05/22 06:53:10;;;;;;;13.52;8.10;;;;;;;-145.45;100.00;62759.84;5328318;27;20103;-83
2022/05/22 06:55:41;;;;;;;14.15;8.93;;;;;;;-145.45;100.00;62759.84;5331405;27;20361;-83
2022/05/22 06:58:13;;;;;;;11.82;9.07;;;;;;;-145.45;100.00;62759.84;5329301;27;20043;-83
2022/05/22 07:00:44;;;;;;;14.88;9.48;;;;;;;-145.45;100.00;62759.84;5338244;27;20024;-83
2022/05/22 07:03:15;;;;;;;12.38;8.10;;;;;;;-145.45;100.00;62759.84;5344199;27;20019;-83
2022/05/22 07:05:51;;;;;;;13.60;9.02;;;;;;;-145.45;100.00;62759.84;5318427;27;20027;-84
2022/05/22 07:08:22;;;;;;;13.40;7.93;;;;;;;-145.45;100.00;62759.84;5331124;27;20032;-84
2022/05/22 07:13:46;;;;;;;10.88;6.93;;;;;;;-145.45;100.00;62759.84;5336724;27;20329;-84
2022/05/22 07:16:18;;;;;;;11.43;7.38;;;;;;;-145.45;100.00;62759.84;5327471;27;20473;-84
2022/05/22 07:18:49;;;;;;;10.40;6.55;;;;;;;-145.45;100.00;62759.84;5341754;27;20042;-82
2022/05/22 07:21:21;;;;;;;13.85;6.43;;;;;;;-145.45;100.00;62759.84;5341854;27;20028;-84
2022/05/22 07:23:53;;;;;;;11.52;6.40;;;;;;;-145.45;100.00;62759.84;5331786;27;20115;-82
2022/05/22 07:26:26;;;;;;;12.20;6.15;;;;;;;-145.45;100.00;62759.84;5321154;27;20099;-82
2022/05/22 07:29:01;;;;;;;8.75;6.32;;;;;;;-145.45;100.00;62759.84;5334622;27;20024;-82
2022/05/22 07:31:34;;;;;;;8.23;6.15;;;;;;;-145.45;100.00;62759.84;5316364;28;20101;-82
2022/05/22 07:34:05;;;;;;;8.80;5.90;;;;;;;-145.45;100.00;62759.84;5348455;27;20024;-82
2022/05/22 07:36:39;;;;;;;9.95;5.45;;;;;;;-145.45;100.00;62759.84;5336230;27;20036;-82
2022/05/22 07:39:11;;;;;;;10.40;5.10;;;;;;;-145.45;100.00;62759.84;5335340;27;20028;-82
2022/05/22 07:41:42;;;;;;;13.07;5.72;;;;;;;-145.45;100.00;62759.84;5345852;27;20024;-82
2022/05/22 07:44:14;;;;;;;10.23;5.43;;;;;;;-145.45;100.00;62759.84;5338468;27;20089;-82
2022/05/22 07:46:46;;;;;;;7.13;4.32;;;;;;;-145.45;100.00;62759.84;5345813;27;20066;-82
2022/05/22 07:52:10;;;;;;;9.65;4.40;;;;;;;-145.45;100.00;62759.84;5331226;27;20043;-82
2022/05/22 07:54:41;;;;;;;7.53;4.05;;;;;;;-145.45;100.00;62759.84;5339865;27;20111;-82
2022/05/22 07:57:16;;;;;;;11.35;4.65;;;;;;;-145.45;100.00;62759.84;5313756;27;20047;-82
2022/05/22 07:59:48;;;;;;;8.85;4.18;;;;;;;-145.45;100.00;62759.84;5337494;27;20027;-82
2022/05/22 08:02:19;;;;;;;9.65;3.80;;;;;;;-145.45;100.00;62759.84;5335982;27;20545;-81
2022/05/22 08:04:50;;;;;;;8.70;3.75;;;;;;;-145.45;100.00;62759.84;5337646;27;20036;-82
2022/05/22 08:07:22;;;;;;;7.00;3.42;;;;;;;-145.45;100.00;62759.84;5336427;27;20099;-81
2022/05/22 08:09:53;;;;;;;7.78;4.07;;;;;;;-145.45;100.00;62759.84;5330204;27;20094;-82
2022/05/22 08:12:26;;;;;;;8.77;2.60;;;;;;;-145.45;100.00;62759.84;5333028;27;20557;-82
2022/05/22 08:14:57;;;;;;;4.95;2.80;;;;;;;-145.45;100.00;62759.84;5325193;27;20028;-82
2022/05/22 08:17:32;;;;;;;8.35;3.72;;;;;;;-145.45;100.00;62759.84;5335333;27;20407;-83
2022/05/22 08:20:09;;;;;;;7.23;3.20;;;;;;;-145.45;100.00;62759.84;5361811;27;20028;-82
2022/05/22 08:22:44;;;;;;;9.88;3.72;;;;;;;-145.45;100.00;62759.84;5327258;27;21124;-82
2022/05/22 08:25:18;;;;;;;7.63;2.65;;;;;;;-145.45;100.00;62759.84;5339091;27;20112;-83
2022/05/22 08:27:50;;;;;;;7.72;2.75;;;;;;;-145.45;100.00;62759.84;5331940;27;20020;-82
2022/05/22 08:30:25;;;;;;;9.20;2.55;;;;;;;-145.45;100.00;62759.84;5335971;27;20085;-82
2022/05/22 08:32:57;;;;;;;6.57;2.30;;;;;;;-145.45;100.00;62759.84;5340983;27;20569;-82
2022/05/22 08:35:32;;;;;;;5.80;2.20;;;;;;;-145.45;100.00;62759.84;5333056;27;20036;-83
2022/05/22 08:38:04;;;;;;;;;;;;;;;-145.45;100.00;62759.84;5345809;27;20102;-82
2022/05/22 08:41:11;;;;;;;7.60;3.10;;;;;;;-145.45;100.00;62759.84;5334080;27;19995;-82
2022/05/22 08:43:56;;;;;;;8.27;3.92;;;;;;;-145.45;100.00;62759.84;5330019;27;20032;-82
2022/05/22 08:46:30;;;;;;;7.05;3.30;;;;;;;-145.45;100.00;62759.84;5347276;27;20035;-82
2022/05/22 08:49:20;;;;;;;8.63;3.35;;;;;;;-145.45;100.00;62759.84;5337508;27;20104;-83
2022/05/22 08:51:57;;;;;;;6.03;3.45;;;;;;;-145.45;100.00;62759.84;5334442;27;20072;-83
2022/05/22 08:54:38;;;;;;;6.03;3.42;;;;;;;-145.45;100.00;62759.84;5331543;27;20020;-82
2022/05/22 09:00:21;;;;;;;8.25;3.45;;;;;;;-145.45;100.00;62759.84;5333973;27;20020;-82
2022/05/22 09:03:06;;;;;;;10.35;3.95;;;;;;;-145.45;100.00;62759.84;5334498;27;20042;-82
2022/05/22 09:05:39;;;;;;;11.07;3.65;;;;;;;-145.45;100.00;62759.84;5339932;27;20026;-82
2022/05/22 09:08:28;;;;;;;8.63;4.30;;;;;;;-145.45;100.00;62759.84;5338195;27;20035;-83
2022/05/22 09:11:09;;;;;;;8.50;4.05;;;;;;;-145.45;100.00;62759.84;5318921;27;20043;-83
2022/05/22 09:14:05;;;;;;;8.55;3.47;;;;;;;-145.45;100.00;62759.84;5337439;27;20523;-82
2022/05/22 09:16:53;;;;;;;9.35;3.88;;;;;;;-145.45;100.00;62759.84;5342527;27;20040;-82
2022/05/22 09:19:39;;;;;;;10.02;4.00;;;;;;;-145.45;100.00;62759.84;5328164;27;20051;-83
2022/05/22 09:22:45;;;;;;;7.72;3.65;;;;;;;-145.45;100.00;62759.84;5342126;27;20081;-82
2022/05/22 09:25:24;;;;;;;8.25;4.53;;;;;;;-145.45;100.00;62759.84;5288885;27;20089;-82
2022/05/22 09:28:15;;;;;;;7.97;3.58;;;;;;;-145.45;100.00;62759.84;5327973;27;20040;-82
2022/05/22 09:31:31;;;;;;;7.95;4.40;;;;;;;-145.45;100.00;62759.84;5335654;27;20027;-82
2022/05/22 09:34:30;;;;;;;6.90;3.70;;;;;;;-145.45;100.00;62759.84;5327923;27;20067;-83
2022/05/22 09:37:09;;;;;;;10.00;3.63;;;;;;;-145.45;100.00;62759.84;5331473;27;20046;-83
2022/05/22 09:40:05;;;;;;;6.55;2.92;;;;;;;-145.45;100.00;62759.84;5329225;27;20020;-83
2022/05/22 09:42:48;;;;;;;10.13;3.67;;;;;;;-145.45;100.00;62759.84;5335426;27;20020;-82
2022/05/22 09:45:38;;;;;;;6.82;3.42;;;;;;;-145.45;100.00;62759.84;5331508;27;20119;-83
2022/05/22 09:48:30;;;;;;;7.63;3.30;;;;;;;-145.45;100.00;62759.84;5328612;27;20047;-82
2022/05/22 09:51:30;;;;;;;6.35;3.25;;;;;;;-145.45;100.00;62759.84;5329926;27;20032;-82
2022/05/22 09:54:14;;;;;;;10.27;3.40;;;;;;;-145.45;100.00;62759.84;5325755;27;20044;-82
2022/05/22 09:57:05;;;;;;;6.43;3.08;;;;;;;-145.45;100.00;62759.84;5330874;27;20036;-82
2022/05/22 10:00:02;;;;;;;10.00;4.00;;;;;;;-145.45;100.00;62759.84;5332341;27;20026;-83
2022/05/22 10:03:00;;;;;;;9.10;3.30;;;;;;;-145.45;100.00;62759.84;5329184;27;20044;-83
2022/05/22 10:05:54;;;;;;;8.93;3.80;;;;;;;-145.45;100.00;62759.84;5334118;27;20077;-83
2022/05/22 10:08:54;;;;;;;8.65;3.92;;;;;;;-145.45;100.00;62759.84;5331480;27;20031;-83
2022/05/22 10:11:35;;;;;;;9.07;3.53;;;;;;;-145.45;100.00;62759.84;5332466;27;20122;-83
2022/05/22 10:14:37;;;;;;;7.53;3.65;;;;;;;-145.45;100.00;62759.84;5321612;27;20031;-83
2022/05/22 10:17:47;;;;;;;9.95;3.80;;;;;;;-145.45;100.00;62759.84;5343806;27;20039;-82
2022/05/22 10:20:22;;;;;;;8.77;3.75;;;;;;;-145.45;100.00;62759.84;5334725;27;20031;-82
2022/05/22 10:23:20;;;;;;;7.93;3.58;;;;;;;-145.45;100.00;62759.84;5332772;27;20523;-82
2022/05/22 10:26:19;;;;;;;7.72;3.60;;;;;;;-145.45;100.00;62759.84;5332729;27;20044;-82
2022/05/22 10:29:05;;;;;;;9.40;4.20;;;;;;;-145.45;100.00;62759.84;5339514;27;20384;-82
2022/05/22 10:31:57;;;;;;;8.13;3.60;;;;;;;-145.45;100.00;62759.84;5335835;27;20118;-81
2022/05/22 10:34:34;;;;;;;8.60;3.90;;;;;;;-145.45;100.00;62759.84;5325809;27;20427;-82
2022/05/22 10:37:32;;;;;;;9.52;4.05;;;;;;;-145.45;100.00;62759.84;5331866;27;20495;-82
2022/05/22 10:40:12;;;;;;;6.35;3.67;;;;;;;-145.45;100.00;62759.84;5315319;27;20138;-82
2022/05/22 10:42:48;;;;;;;7.95;4.13;;;;;;;-145.45;100.00;62759.84;5333945;27;20032;-82
2022/05/22 10:45:32;;;;;;;7.38;3.42;;;;;;;-145.45;100.00;62759.84;5321742;27;20035;-82
2022/05/22 10:48:11;;;;;;;6.03;3.28;;;;;;;-145.45;100.00;62759.84;5330344;27;20163;-82
2022/05/22 10:51:02;;;;;;;8.32;3.45;;;;;;;-145.45;100.00;62759.84;5337275;27;20087;-82
2022/05/22 10:53:46;;;;;;;7.35;3.70;;;;;;;-145.45;100.00;62759.84;5339435;27;20487;-82
2022/05/22 10:56:29;;;;;;;7.72;3.60;;;;;;;-145.45;100.00;62759.84;5341516;27;20101;-82
2022/05/22 10:59:17;;;;;;;6.35;4.13;;;;;;;-145.45;100.00;62759.84;5327996;27;20085;-82
2022/05/22 11:02:04;;;;;;;8.68;3.45;;;;;;;-145.45;100.00;62759.84;5344335;27;20030;-82
2022/05/22 11:04:42;;;;;;;6.22;3.17;;;;;;;-145.45;100.00;62759.84;5337247;27;20470;-82
2022/05/22 11:07:28;;;;;;;8.25;3.40;;;;;;;-145.45;100.00;62759.84;5327878;27;20431;-82
2022/05/22 11:10:27;;;;;;;8.50;3.80;;;;;;;-145.45;100.00;62759.84;5335295;27;20071;-82
2022/05/22 11:13:01;;;;;;;8.80;4.03;;;;;;;-145.45;100.00;62759.84;5317362;27;20115;-82
2022/05/22 11:15:37;;;;;;;6.85;3.28;;;;;;;-145.45;100.00;62759.84;5315149;27;20048;-82
2022/05/22 11:18:11;;;;;;;8.32;3.40;;;;;;;-145.45;100.00;62759.84;5339263;27;20035;-82
2022/05/22 11:21:11;;;;;;;6.50;3.42;;;;;;;-145.45;100.00;62759.84;5335519;27;20039;-82
2022/05/22 11:24:16;;;;;;;9.10;4.07;;;;;;;-145.45;100.00;62759.84;5319660;27;20031;-82
2022/05/22 11:27:24;;;;;;;8.25;3.53;;;;;;;-145.45;100.00;62759.84;5340022;27;20431;-82
2022/05/22 11:30:22;;;;;;;7.68;3.22;;;;;;;-145.45;100.00;62759.84;5335553;27;20040;-82
2022/05/22 11:33:13;;;;;;;5.80;3.50;;;;;;;-145.45;100.00;62759.84;5325729;27;20028;-81
2022/05/22 11:35:53;;;;;;;7.25;3.17;;;;;;;-145.45;100.00;62759.84;5301486;27;20062;-82
2022/05/22 11:38:42;;;;;;;8.00;3.53;;;;;;;-145.45;100.00;62759.84;5321568;27;20042;-81
2022/05/22 11:41:28;;;;;;;6.55;3.30;;;;;;;-145.45;100.00;62759.84;5334601;27;20054;-82
2022/05/22 11:44:33;;;;;;;7.15;3.15;;;;;;;-145.45;100.00;62759.84;5343990;27;20486;-81
2022/05/22 11:47:18;;;;;;;10.25;3.40;;;;;;;-145.45;100.00;62759.84;5342853;27;20412;-82
2022/05/22 11:50:21;;;;;;;7.82;3.42;;;;;;;-145.45;100.00;62759.84;5320828;27;20032;-82
2022/05/22 11:53:10;;;;;;;7.03;3.13;;;;;;;-145.45;100.00;62759.84;5343720;27;20016;-81
2022/05/22 11:56:03;;;;;;;6.65;3.42;;;;;;;-145.45;100.00;62759.84;5348660;27;20491;-82
2022/05/22 11:58:39;;;;;;;8.10;3.80;;;;;;;-145.45;100.00;62759.84;5321061;27;20570;-82
2022/05/22 12:01:15;;;;;;;9.15;3.63;;;;;;;-145.45;100.00;62759.84;5337678;27;20090;-82
2022/05/22 12:04:18;;;;;;;7.43;4.10;;;;;;;-145.45;100.00;62759.84;5339041;27;20031;-81
2022/05/22 12:07:08;;;;;;;8.50;3.85;;;;;;;-145.45;100.00;62759.84;5317732;27;20019;-82
2022/05/22 12:10:05;;;;;;;11.27;4.28;;;;;;;-145.45;100.00;62759.84;5330380;27;20393;-81